createdAt,value
2023-05-02T00:01:22.850Z,95623.81
2023-05-02T00:03:52.480Z,95623.00
2023-05-02T00:06:22.157Z,95624.34
2023-05-02T00:08:51.662Z,95634.50
2023-05-02T00:11:22.916Z,95621.09
2023-05-02T00:13:52.300Z,95624.25
2023-05-02T00:16:21.835Z,95624.50
2023-05-02T00:18:51.280Z,95625.28
2023-05-02T00:21:21.178Z,95628.16
2023-05-02T00:23:52.140Z,95617.72
2023-05-02T00:26:23.075Z,95628.16
2023-05-02T00:28:52.760Z,95627.84
2023-05-02T00:31:22.241Z,95629.44
2023-05-02T00:33:51.764Z,95625.06
2023-05-02T00:36:21.524Z,95623.94
2023-05-02T00:38:51.067Z,95626.81
2023-05-02T00:41:22.341Z,95623.78
2023-05-02T00:43:51.786Z,95626.66
2023-05-02T00:46:21.283Z,95623.44
2023-05-02T00:48:50.845Z,95620.38
2023-05-02T00:51:20.685Z,95628.66
2023-05-02T00:53:50.706Z,95620.56
2023-05-02T00:56:22.588Z,95625.66
2023-05-02T00:58:52.193Z,95629.09
2023-05-02T01:01:41.536Z,95626.94
2023-05-02T01:04:31.706Z,95633.28
2023-05-02T01:07:25.981Z,95630.53
2023-05-02T01:10:15.400Z,95631.28
2023-05-02T01:12:56.926Z,95639.00
2023-05-02T01:15:30.433Z,95639.47
2023-05-02T01:18:06.516Z,95634.09
2023-05-02T01:20:42.376Z,95641.78
2023-05-02T01:23:24.698Z,95628.91
2023-05-02T01:26:16.394Z,95638.22
2023-05-02T01:29:01.216Z,95632.00
2023-05-02T01:31:36.690Z,95633.84
2023-05-02T01:34:12.071Z,95634.59
2023-05-02T01:36:46.660Z,95636.69
2023-05-02T01:39:23.008Z,95631.59
2023-05-02T01:41:55.810Z,95638.00
2023-05-02T01:44:28.584Z,95633.97
2023-05-02T01:46:59.227Z,95638.75
2023-05-02T01:49:32.366Z,95634.22
2023-05-02T01:52:06.933Z,95633.41
2023-05-02T01:54:39.997Z,95633.97
2023-05-02T01:57:12.752Z,95638.00
2023-05-02T01:59:44.931Z,95637.19
2023-05-02T02:02:15.658Z,95644.69
2023-05-02T02:04:50.010Z,95644.34
2023-05-02T02:07:19.613Z,95649.38
2023-05-02T02:09:49.143Z,95650.75
2023-05-02T02:12:30.960Z,95649.72
2023-05-02T02:15:19.188Z,95648.16
2023-05-02T02:17:56.620Z,95657.53
2023-05-02T02:20:28.292Z,95659.16
2023-05-02T02:23:02.239Z,95659.16
2023-05-02T02:25:32.456Z,95653.81
2023-05-02T02:28:02.725Z,95656.72
2023-05-02T02:30:34.500Z,95659.81
2023-05-02T02:33:04.120Z,95661.34
2023-05-02T02:35:42.583Z,95664.28
2023-05-02T02:38:22.302Z,95664.22
2023-05-02T02:41:00.813Z,95667.75
2023-05-02T02:43:42.481Z,95663.66
2023-05-02T02:46:29.574Z,95667.97
2023-05-02T02:49:19.844Z,95666.72
2023-05-02T02:52:01.074Z,95670.75
2023-05-02T02:54:37.683Z,95664.34
2023-05-02T02:57:17.898Z,95668.41
2023-05-02T03:00:00.741Z,95666.53
2023-05-02T03:02:34.733Z,95677.34
2023-05-02T03:05:05.944Z,95677.75
2023-05-02T03:07:35.542Z,95681.31
2023-05-02T03:10:07.234Z,95680.59
2023-05-02T03:12:39.874Z,95679.47
2023-05-02T03:15:30.348Z,95686.03
2023-05-02T03:18:01.631Z,95690.16
2023-05-02T03:20:31.615Z,95685.53
2023-05-02T03:23:02.968Z,95681.72
2023-05-02T03:25:32.438Z,95689.75
2023-05-02T03:28:01.916Z,95693.19
2023-05-02T03:30:32.522Z,95688.56
2023-05-02T03:33:04.766Z,95693.56
2023-05-02T03:35:34.661Z,95702.41
2023-05-02T03:38:04.351Z,95697.28
2023-05-02T03:40:33.797Z,95695.91
2023-05-02T03:43:03.525Z,95700.44
2023-05-02T03:45:36.174Z,95700.94
2023-05-02T03:48:07.369Z,95708.38
2023-05-02T03:50:37.430Z,95707.47
2023-05-02T03:53:08.339Z,95714.69
2023-05-02T03:55:46.695Z,95716.81
2023-05-02T03:58:23.500Z,95718.34
2023-05-02T04:00:53.833Z,95726.03
2023-05-02T04:03:25.775Z,95721.50
2023-05-02T04:05:57.096Z,95726.50
2023-05-02T04:08:26.796Z,95725.22
2023-05-02T04:10:56.528Z,95727.66
2023-05-02T04:13:26.399Z,95726.13
2023-05-02T04:15:55.917Z,95735.03
2023-05-02T04:18:29.718Z,95736.41
2023-05-02T04:20:59.271Z,95733.75
2023-05-02T04:23:29.065Z,95742.34
2023-05-02T04:26:02.491Z,95737.88
2023-05-02T04:28:40.787Z,95744.25
2023-05-02T04:31:12.068Z,95749.34
2023-05-02T04:33:43.215Z,95750.56
2023-05-02T04:36:13.997Z,95758.34
2023-05-02T04:38:46.614Z,95752.84
2023-05-02T04:41:18.240Z,95770.03
2023-05-02T04:43:54.360Z,95761.06
2023-05-02T04:46:23.946Z,95764.53
2023-05-02T04:48:55.720Z,95762.97
2023-05-02T04:51:25.792Z,95765.16
2023-05-02T04:53:55.684Z,95777.44
2023-05-02T04:56:25.588Z,95778.56
2023-05-02T04:58:55.169Z,95781.88
2023-05-02T05:01:27.910Z,95782.69
2023-05-02T05:03:59.476Z,95779.84
2023-05-02T05:06:29.111Z,95785.06
2023-05-02T05:09:00.037Z,95781.06
2023-05-02T05:11:29.677Z,95785.94
2023-05-02T05:13:59.640Z,95790.34
2023-05-02T05:16:31.007Z,95795.16
2023-05-02T05:19:02.851Z,95803.53
2023-05-02T05:21:32.829Z,95800.69
2023-05-02T05:24:03.536Z,95812.06
2023-05-02T05:26:33.177Z,95790.69
2023-05-02T05:29:02.762Z,95796.34
2023-05-02T05:31:38.655Z,95809.75
2023-05-02T05:34:10.335Z,95804.78
2023-05-02T05:36:42.183Z,95807.47
2023-05-02T05:39:11.954Z,95815.00
2023-05-02T05:41:43.219Z,95823.94
2023-05-02T05:44:14.707Z,95815.47
2023-05-02T05:46:44.227Z,95820.84
2023-05-02T05:49:18.348Z,95819.22
2023-05-02T05:51:48.665Z,95819.78
2023-05-02T05:54:19.683Z,95827.88
2023-05-02T05:56:49.243Z,95825.25
2023-05-02T05:59:21.737Z,95844.13
2023-05-02T06:01:51.507Z,95838.84
2023-05-02T06:04:25.745Z,95833.22
2023-05-02T06:06:56.281Z,95835.16
2023-05-02T06:09:26.663Z,95843.56
2023-05-02T06:11:56.236Z,95846.75
2023-05-02T06:14:26.691Z,95851.06
2023-05-02T06:16:56.536Z,95852.75
2023-05-02T06:19:27.509Z,95858.44
2023-05-02T06:21:57.015Z,95856.63
2023-05-02T06:24:26.502Z,95862.00
2023-05-02T06:26:57.608Z,95863.13
2023-05-02T06:29:27.956Z,95865.34
2023-05-02T06:31:58.017Z,95867.03
2023-05-02T06:34:28.913Z,95872.09
2023-05-02T06:36:58.487Z,95879.94
2023-05-02T06:39:28.062Z,95869.09
2023-05-02T06:41:59.171Z,95883.09
2023-05-02T06:44:30.170Z,95880.53
2023-05-02T06:46:59.619Z,95875.81
2023-05-02T06:49:31.537Z,95880.16
2023-05-02T06:52:01.208Z,95882.72
2023-05-02T06:54:30.854Z,95880.38
2023-05-02T06:57:02.207Z,95883.16
2023-05-02T06:59:31.943Z,95883.78
2023-05-02T07:02:03.030Z,95885.19
2023-05-02T07:04:36.126Z,95885.53
2023-05-02T07:07:05.623Z,95889.38
2023-05-02T07:09:35.115Z,95883.50
2023-05-02T07:12:06.918Z,95885.72
2023-05-02T07:14:36.623Z,95892.00
2023-05-02T07:17:06.073Z,95897.97
2023-05-02T07:19:37.285Z,95895.06
2023-05-02T07:22:06.969Z,95896.50
2023-05-02T07:24:36.753Z,95886.31
2023-05-02T07:27:06.262Z,95894.66
2023-05-02T07:29:35.723Z,95893.38
2023-05-02T07:32:05.862Z,95904.97
2023-05-02T07:34:36.764Z,95898.78
2023-05-02T07:37:06.659Z,95906.59
2023-05-02T07:39:36.156Z,95907.66
2023-05-02T07:42:06.554Z,95903.09
2023-05-02T07:44:36.843Z,95902.00
2023-05-02T07:47:06.521Z,95907.13
2023-05-02T07:49:37.895Z,95908.25
2023-05-02T07:52:08.023Z,95908.56
2023-05-02T07:54:37.731Z,95915.06
2023-05-02T07:57:09.195Z,95912.69
2023-05-02T07:59:39.727Z,95918.31
2023-05-02T08:02:10.607Z,95919.16
2023-05-02T08:04:42.220Z,95918.66
2023-05-02T08:07:11.988Z,95918.66
2023-05-02T08:09:41.473Z,95920.28
2023-05-02T08:12:10.941Z,95920.03
2023-05-02T08:14:40.439Z,95923.56
2023-05-02T08:17:09.896Z,95932.47
2023-05-02T08:19:40.767Z,95926.81
2023-05-02T08:22:10.259Z,95925.44
2023-05-02T08:24:39.829Z,95923.00
2023-05-02T08:27:09.323Z,95931.66
2023-05-02T08:29:38.907Z,95930.03
2023-05-02T08:32:08.493Z,95928.69
2023-05-02T08:34:38.059Z,95923.00
2023-05-02T08:37:12.120Z,95923.00
2023-05-02T08:39:41.568Z,95926.22
2023-05-02T08:42:11.020Z,95922.41
2023-05-02T08:44:40.514Z,95936.44
2023-05-02T08:47:15.581Z,95933.75
2023-05-02T08:49:45.992Z,95936.16
2023-05-02T08:52:19.370Z,95937.47
2023-05-02T08:54:51.538Z,95940.41
2023-05-02T08:57:21.036Z,95947.16
2023-05-02T08:59:50.638Z,95947.38
2023-05-02T09:02:38.966Z,95946.78
2023-05-02T09:05:12.930Z,95950.88
2023-05-02T09:07:49.336Z,95944.59
2023-05-02T09:10:19.100Z,95948.31
2023-05-02T09:12:48.576Z,95956.13
2023-05-02T09:15:20.961Z,95956.34
2023-05-02T09:17:51.037Z,95962.47
2023-05-02T09:20:20.652Z,95962.50
2023-05-02T09:22:53.904Z,95965.22
2023-05-02T09:25:23.679Z,95957.59
2023-05-02T09:27:55.890Z,95955.16
2023-05-02T09:30:27.577Z,95962.47
2023-05-02T09:32:57.345Z,95973.28
2023-05-02T09:35:27.073Z,95965.72
2023-05-02T09:37:58.985Z,95972.00
2023-05-02T09:40:30.156Z,95969.31
2023-05-02T09:42:59.651Z,95970.72
2023-05-02T09:45:29.086Z,95973.97
2023-05-02T09:48:03.958Z,95963.97
2023-05-02T09:50:39.225Z,95974.25
2023-05-02T09:53:11.792Z,95969.69
2023-05-02T09:55:41.433Z,95973.44
2023-05-02T09:58:23.450Z,95970.22
2023-05-02T10:00:53.200Z,95985.69
2023-05-02T10:03:26.331Z,95978.97
2023-05-02T10:05:56.729Z,95987.63
2023-05-02T10:08:30.039Z,95987.09
2023-05-02T10:11:02.164Z,95985.00
2023-05-02T10:13:34.866Z,95989.09
2023-05-02T10:16:07.632Z,95988.28
2023-05-02T10:19:00.942Z,95995.34
2023-05-02T10:21:32.479Z,95993.72
2023-05-02T10:24:04.657Z,95985.06
2023-05-02T10:26:37.509Z,95994.25
2023-05-02T10:29:07.162Z,95997.75
2023-05-02T10:31:39.739Z,95999.34
2023-05-02T10:34:13.159Z,95993.94
2023-05-02T10:36:42.654Z,95992.03
2023-05-02T10:39:14.307Z,95988.25
2023-05-02T10:41:45.014Z,95986.63
2023-05-02T10:44:14.641Z,95976.94
2023-05-02T10:46:44.140Z,95979.41
2023-05-02T10:49:15.341Z,95975.91
2023-05-02T10:51:45.076Z,95970.25
2023-05-02T10:54:24.595Z,95966.19
2023-05-02T10:57:09.394Z,95969.97
2023-05-02T10:59:40.817Z,95973.22
2023-05-02T11:02:55.445Z,95971.59
2023-05-02T11:05:26.324Z,95970.50
2023-05-02T11:08:34.625Z,95969.44
2023-05-02T11:11:47.161Z,95971.28
2023-05-02T11:14:50.059Z,95966.91
2023-05-02T11:17:21.011Z,95963.59
2023-05-02T11:20:31.816Z,95972.69
2023-05-02T11:23:28.116Z,95971.03
2023-05-02T11:26:01.101Z,95968.66
2023-05-02T11:28:48.434Z,95966.25
2023-05-02T11:32:03.502Z,95971.69
2023-05-02T11:34:45.174Z,95964.97
2023-05-02T11:37:16.475Z,95969.03
2023-05-02T11:39:46.662Z,95970.13
2023-05-02T11:42:32.589Z,95964.44
2023-05-02T11:45:04.151Z,95969.53
2023-05-02T11:47:34.796Z,95964.66
2023-05-02T11:50:09.553Z,95962.66
2023-05-02T11:52:40.882Z,95968.56
2023-05-02T11:55:14.919Z,95960.44
2023-05-02T11:57:44.461Z,95959.00
2023-05-02T12:00:17.029Z,95964.66
2023-05-02T12:02:48.878Z,95963.78
2023-05-02T12:05:30.469Z,95952.59
2023-05-02T12:08:01.247Z,95962.13
2023-05-02T12:10:38.736Z,95969.94
2023-05-02T12:13:09.431Z,95972.91
2023-05-02T12:15:41.239Z,95964.81
2023-05-02T12:18:11.098Z,95965.63
2023-05-02T12:20:40.723Z,95967.25
2023-05-02T12:23:11.022Z,95959.91
2023-05-02T12:25:41.612Z,95957.34
2023-05-02T12:28:12.223Z,95956.13
2023-05-02T12:30:43.065Z,95958.00
2023-05-02T12:33:12.575Z,95955.50
2023-05-02T12:35:42.357Z,95952.75
2023-05-02T12:38:16.456Z,95950.38
2023-05-02T12:40:52.954Z,95950.69
2023-05-02T12:43:22.876Z,95952.13
2023-05-02T12:46:11.716Z,95955.94
2023-05-02T12:48:41.313Z,95957.53
2023-05-02T12:51:23.695Z,95957.13
2023-05-02T12:53:53.247Z,95956.44
2023-05-02T12:56:24.446Z,95960.25
2023-05-02T12:58:53.997Z,95967.94
2023-05-02T13:01:25.068Z,95962.63
2023-05-02T13:03:54.713Z,95967.19
2023-05-02T13:06:24.268Z,95971.84
2023-05-02T13:08:53.793Z,95972.28
2023-05-02T13:11:23.261Z,95977.06
2023-05-02T13:13:52.840Z,95972.91
2023-05-02T13:16:26.027Z,95972.22
2023-05-02T13:18:55.641Z,95975.31
2023-05-02T13:21:25.288Z,95976.22
2023-05-02T13:23:55.431Z,95980.38
2023-05-02T13:26:24.907Z,95977.22
2023-05-02T13:28:54.354Z,95981.84
2023-05-02T13:31:25.321Z,95974.28
2023-05-02T13:33:54.844Z,95968.13
2023-05-02T13:36:24.824Z,95981.94
2023-05-02T13:38:54.442Z,95975.72
2023-05-02T13:41:24.619Z,95976.06
2023-05-02T13:43:54.403Z,95977.16
2023-05-02T13:46:25.217Z,95972.25
2023-05-02T13:48:54.698Z,95975.50
2023-05-02T13:51:24.763Z,95979.28
2023-05-02T13:53:54.219Z,95976.81
2023-05-02T13:56:23.951Z,95969.16
2023-05-02T13:58:53.440Z,95976.66
2023-05-02T14:01:22.945Z,95971.22
2023-05-02T14:04:56.561Z,95979.56
2023-05-02T14:07:26.287Z,95977.06
2023-05-02T14:09:55.816Z,95982.75
2023-05-02T14:12:25.825Z,95988.44
2023-05-02T14:14:55.278Z,95979.31
2023-05-02T14:17:25.564Z,95982.59
2023-05-02T14:19:56.398Z,95983.47
2023-05-02T14:22:25.958Z,95983.81
2023-05-02T14:24:55.469Z,95994.72
2023-05-02T14:27:25.777Z,95989.06
2023-05-02T14:29:55.370Z,95989.66
2023-05-02T14:32:24.809Z,95993.47
2023-05-02T14:34:54.284Z,95994.31
2023-05-02T14:37:25.224Z,95988.69
2023-05-02T14:39:56.223Z,95991.44
2023-05-02T14:42:26.097Z,95992.81
2023-05-02T14:44:57.451Z,95987.94
2023-05-02T14:47:30.859Z,95993.63
2023-05-02T14:50:00.848Z,95998.22
2023-05-02T14:52:32.005Z,95997.16
2023-05-02T14:55:02.001Z,95999.31
2023-05-02T14:57:32.414Z,95998.25
2023-05-02T15:00:02.514Z,95999.59
2023-05-02T15:02:32.264Z,96001.75
2023-05-02T15:05:01.965Z,95997.97
2023-05-02T15:07:33.058Z,96005.81
2023-05-02T15:10:02.667Z,95995.28
2023-05-02T15:12:32.343Z,95996.34
2023-05-02T15:15:01.773Z,96005.00
2023-05-02T15:17:31.283Z,96010.16
2023-05-02T15:20:01.118Z,96019.63
2023-05-02T15:22:32.118Z,96014.22
2023-05-02T15:25:03.158Z,96014.50
2023-05-02T15:27:34.047Z,96016.09
2023-05-02T15:30:04.664Z,96009.63
2023-05-02T15:32:34.804Z,96017.16
2023-05-02T15:35:07.916Z,96014.75
2023-05-02T15:37:38.565Z,96016.09
2023-05-02T15:40:10.761Z,96014.75
2023-05-02T15:42:40.464Z,96017.72
2023-05-02T15:45:14.413Z,96032.81
2023-05-02T15:47:43.886Z,96030.38
2023-05-02T15:50:13.846Z,96041.44
2023-05-02T15:52:44.695Z,96036.00
2023-05-02T15:55:14.372Z,96044.59
2023-05-02T15:57:43.932Z,96046.75
2023-05-02T16:00:16.817Z,96051.56
2023-05-02T16:02:46.433Z,96051.25
2023-05-02T16:05:16.151Z,96061.22
2023-05-02T16:07:47.042Z,96072.25
2023-05-02T16:10:16.616Z,96086.50
2023-05-02T16:12:46.188Z,96103.69
2023-05-02T16:15:15.924Z,96109.81
2023-05-02T16:17:45.510Z,96114.00
2023-05-02T16:20:15.030Z,96123.91
2023-05-02T16:22:46.953Z,96127.03
2023-05-02T16:25:18.681Z,96127.78
2023-05-02T16:27:48.222Z,96140.56
2023-05-02T16:30:18.199Z,96151.03
2023-05-02T16:32:47.693Z,96149.28
2023-05-02T16:35:17.266Z,96148.72
2023-05-02T16:37:48.330Z,96149.47
2023-05-02T16:40:17.988Z,96149.72
2023-05-02T16:42:47.645Z,96146.22
2023-05-02T16:45:17.172Z,96149.22
2023-05-02T16:47:46.612Z,96140.63
2023-05-02T16:50:16.779Z,96134.47
2023-05-02T16:52:47.696Z,96134.53
2023-05-02T16:55:17.677Z,96132.91
2023-05-02T16:57:47.185Z,96128.88
2023-05-02T17:00:18.388Z,96131.56
2023-05-02T17:02:47.991Z,96132.94
2023-05-02T17:05:19.901Z,96124.06
2023-05-02T17:07:51.156Z,96118.94
2023-05-02T17:10:20.742Z,96121.38
2023-05-02T17:12:51.393Z,96126.25
2023-05-02T17:15:21.030Z,96128.69
2023-05-02T17:17:50.665Z,96125.44
2023-05-02T17:20:20.481Z,96128.13
2023-05-02T17:22:51.327Z,96133.75
2023-05-02T17:25:21.069Z,96138.59
2023-05-02T17:27:50.554Z,96139.66
2023-05-02T17:30:20.470Z,96145.03
2023-05-02T17:34:26.160Z,96154.41
2023-05-02T17:36:56.045Z,96157.34
2023-05-02T17:39:27.012Z,96157.88
2023-05-02T17:41:56.490Z,96159.50
2023-05-02T17:44:26.028Z,96168.09
2023-05-02T17:46:55.583Z,96164.53
2023-05-02T17:49:25.230Z,96167.22
2023-05-02T17:51:54.797Z,96173.88
2023-05-02T17:54:24.275Z,96170.88
2023-05-02T17:56:55.415Z,96168.06
2023-05-02T17:59:24.846Z,96168.31
2023-05-02T18:01:54.486Z,96166.41
2023-05-02T18:04:25.326Z,96164.22
2023-05-02T18:06:55.427Z,96162.03
2023-05-02T18:09:25.330Z,96172.22
2023-05-02T18:12:00.499Z,96165.97
2023-05-02T18:14:29.983Z,96165.41
2023-05-02T18:16:59.618Z,96171.78
2023-05-02T18:19:29.184Z,96176.00
2023-05-02T18:21:58.645Z,96171.84
2023-05-02T18:24:29.345Z,96175.19
2023-05-02T18:27:00.316Z,96168.09
2023-05-02T18:29:29.861Z,96176.63
2023-05-02T18:31:59.369Z,96181.59
2023-05-02T18:34:33.150Z,96180.13
2023-05-02T18:37:03.387Z,96178.72
2023-05-02T18:39:34.004Z,96184.00
2023-05-02T18:42:05.605Z,96184.97
2023-05-02T18:44:35.103Z,96186.44
2023-05-02T18:47:04.584Z,96188.72
2023-05-02T18:49:34.064Z,96200.66
2023-05-02T18:52:05.215Z,96196.03
2023-05-02T18:54:34.798Z,96196.75
2023-05-02T18:57:06.170Z,96199.59
2023-05-02T18:59:35.620Z,96208.28
2023-05-02T19:02:05.052Z,96209.72
2023-05-02T19:04:34.520Z,96204.28
2023-05-02T19:07:04.114Z,96207.34
2023-05-02T19:09:33.701Z,96208.31
2023-05-02T19:12:04.173Z,96208.06
2023-05-02T19:14:35.850Z,96216.25
2023-05-02T19:17:05.834Z,96219.41
2023-05-02T19:19:35.313Z,96219.56
2023-05-02T19:22:04.836Z,96218.38
2023-05-02T19:24:34.448Z,96222.59
2023-05-02T19:27:07.800Z,96227.94
2023-05-02T19:29:38.723Z,96229.72
2023-05-02T19:32:08.353Z,96238.25
2023-05-02T19:34:37.924Z,96235.81
2023-05-02T19:37:07.431Z,96230.91
2023-05-02T19:39:36.928Z,96243.72
2023-05-02T19:42:06.676Z,96245.47
2023-05-02T19:44:36.145Z,96250.38
2023-05-02T19:47:07.457Z,96248.41
2023-05-02T19:49:36.940Z,96246.66
2023-05-02T19:52:07.483Z,96245.72
2023-05-02T19:54:37.071Z,96247.25
2023-05-02T19:57:06.809Z,96250.84
2023-05-02T19:59:36.285Z,96250.25
2023-05-02T20:02:07.142Z,96246.44
2023-05-02T20:04:36.694Z,96251.09
2023-05-02T20:07:06.229Z,96251.78
2023-05-02T20:09:35.663Z,96250.59
2023-05-02T20:12:06.068Z,96251.53
2023-05-02T20:14:35.500Z,96259.47
2023-05-02T20:17:06.455Z,96258.50
2023-05-02T20:19:36.209Z,96260.47
2023-05-02T20:22:05.842Z,96257.28
2023-05-02T20:24:35.286Z,96257.19
2023-05-02T20:27:04.872Z,96258.56
2023-05-02T20:29:34.320Z,96253.06
2023-05-02T20:32:03.912Z,96257.47
2023-05-02T20:34:36.682Z,96253.59
2023-05-02T20:37:07.973Z,96257.53
2023-05-02T20:39:37.723Z,96263.16
2023-05-02T20:42:07.328Z,96256.41
2023-05-02T20:44:37.863Z,96255.56
2023-05-02T20:47:07.378Z,96259.75
2023-05-02T20:49:38.368Z,96262.63
2023-05-02T20:52:08.018Z,96259.81
2023-05-02T20:54:37.496Z,96258.66
2023-05-02T20:57:06.915Z,96259.91
2023-05-02T20:59:36.369Z,96259.53
2023-05-02T21:02:07.664Z,96260.47
2023-05-02T21:04:38.686Z,96260.53
2023-05-02T21:07:08.248Z,96262.84
2023-05-02T21:09:37.718Z,96256.53
2023-05-02T21:12:07.476Z,96263.59
2023-05-02T21:14:36.983Z,96268.59
2023-05-02T21:17:06.504Z,96253.00
2023-05-02T21:19:37.692Z,96259.81
2023-05-02T21:22:07.272Z,96258.81
2023-05-02T21:24:37.177Z,96259.25
2023-05-02T21:27:06.673Z,96263.41
2023-05-02T21:29:36.184Z,96261.19
2023-05-02T21:32:06.764Z,96264.28
2023-05-02T21:34:37.571Z,96262.31
2023-05-02T21:37:07.398Z,96262.97
2023-05-02T21:39:36.866Z,96262.59
2023-05-02T21:42:06.449Z,96256.44
2023-05-02T21:44:36.073Z,96256.66
2023-05-02T21:47:05.656Z,96255.25
2023-05-02T21:49:35.147Z,96255.84
2023-05-02T21:52:06.424Z,96244.88
2023-05-02T21:54:35.997Z,96252.00
2023-05-02T21:57:05.674Z,96254.13
2023-05-02T21:59:35.859Z,96250.16
2023-05-02T22:02:05.446Z,96248.69
2023-05-02T22:04:35.053Z,96241.59
2023-05-02T22:07:05.819Z,96251.03
2023-05-02T22:09:35.280Z,96246.50
2023-05-02T22:12:05.602Z,96242.78
2023-05-02T22:14:44.449Z,96243.84
2023-05-02T22:17:18.643Z,96239.53
2023-05-02T22:19:50.858Z,96236.03
2023-05-02T22:22:21.750Z,96244.06
2023-05-02T22:24:51.343Z,96253.13
2023-05-02T22:27:20.918Z,96251.25
2023-05-02T22:29:50.337Z,96255.22
2023-05-02T22:32:19.831Z,96258.94
2023-05-02T22:34:49.302Z,96254.25
2023-05-02T22:37:18.750Z,96259.22
2023-05-02T22:39:49.564Z,96265.00
2023-05-02T22:42:19.588Z,96269.94
2023-05-02T22:44:54.411Z,96251.69
2023-05-02T22:47:26.865Z,96267.50
2023-05-02T22:49:56.793Z,96259.25
2023-05-02T22:52:28.365Z,96262.53
2023-05-02T22:54:59.541Z,96273.03
2023-05-02T22:57:28.960Z,96272.00
2023-05-02T22:59:58.336Z,96268.28
2023-05-02T23:02:28.009Z,96271.16
2023-05-02T23:04:58.094Z,96276.50
2023-05-02T23:07:27.520Z,96272.41
2023-05-02T23:09:56.951Z,96269.94
2023-05-02T23:12:27.906Z,96275.13
2023-05-02T23:14:57.978Z,96272.91
2023-05-02T23:17:27.455Z,96267.78
2023-05-02T23:19:58.068Z,96269.50
2023-05-02T23:22:27.552Z,96269.56
2023-05-02T23:24:57.029Z,96262.81
2023-05-02T23:27:28.146Z,96265.47
2023-05-02T23:29:57.658Z,96262.00
2023-05-02T23:32:27.322Z,96262.00
2023-05-02T23:34:57.047Z,96260.34
2023-05-02T23:37:28.140Z,96258.50
2023-05-02T23:39:58.560Z,96253.59
2023-05-02T23:42:29.876Z,96259.16
2023-05-02T23:44:59.271Z,96256.13
2023-05-02T23:47:28.792Z,96257.59
2023-05-02T23:49:58.252Z,96260.25
2023-05-02T23:52:27.763Z,96261.06
2023-05-02T23:54:57.244Z,96258.66
2023-05-02T23:57:31.245Z,96262.38
